createdAt,value
2018-01-25T00:00:34.642Z,45.51
2018-01-25T00:01:34.599Z,45.99
2018-01-25T00:02:34.567Z,45.80
2018-01-25T00:03:34.523Z,44.75
2018-01-25T00:04:34.495Z,46.18
2018-01-25T00:05:34.472Z,47.04
2018-01-25T00:06:34.425Z,46.56
2018-01-25T00:07:34.370Z,47.52
2018-01-25T00:08:34.335Z,46.09
2018-01-25T00:09:34.334Z,48.37
2018-01-25T00:10:34.256Z,47.61
2018-01-25T00:11:34.225Z,46.94
2018-01-25T00:12:34.191Z,45.89
2018-01-25T00:13:34.163Z,45.99
2018-01-25T00:14:34.105Z,45.89
2018-01-25T00:15:34.076Z,47.89
2018-01-25T00:16:34.034Z,47.42
2018-01-25T00:17:34.057Z,47.52
2018-01-25T00:18:33.958Z,49.04
2018-01-25T00:19:33.935Z,46.75
2018-01-25T00:20:33.897Z,48.94
2018-01-25T00:21:33.845Z,48.94
2018-01-25T00:22:33.801Z,50.09
2018-01-25T00:23:33.764Z,49.13
2018-01-25T00:24:33.732Z,49.99
2018-01-25T00:25:33.682Z,47.42
2018-01-25T00:26:33.680Z,49.42
2018-01-25T00:27:33.653Z,49.42
2018-01-25T00:28:33.575Z,49.32
2018-01-25T00:29:33.531Z,50.09
2018-01-25T00:30:33.606Z,48.08
2018-01-25T00:31:33.518Z,49.90
2018-01-25T00:32:33.439Z,50.27
2018-01-25T00:33:33.380Z,50.66
2018-01-25T00:34:33.341Z,51.70
2018-01-25T00:35:33.311Z,51.89
2018-01-25T00:36:33.275Z,50.46
2018-01-25T00:37:33.226Z,52.18
2018-01-25T00:38:33.188Z,52.56
2018-01-25T00:39:33.152Z,51.51
2018-01-25T00:40:33.114Z,51.70
2018-01-25T00:41:33.073Z,52.66
2018-01-25T00:42:33.038Z,50.46
2018-01-25T00:43:32.996Z,52.66
2018-01-25T00:44:32.957Z,52.84
2018-01-25T00:45:32.919Z,52.66
2018-01-25T00:46:32.882Z,52.09
2018-01-25T00:47:32.842Z,53.52
2018-01-25T00:48:32.803Z,54.27
2018-01-25T00:49:32.765Z,53.23
2018-01-25T00:50:32.730Z,55.13
2018-01-25T00:51:32.696Z,53.52
2018-01-25T00:52:32.650Z,55.99
2018-01-25T00:53:32.629Z,55.51
2018-01-25T00:54:32.572Z,53.80
2018-01-25T00:55:32.549Z,55.13
2018-01-25T00:56:32.522Z,56.37
2018-01-25T00:57:32.463Z,55.51
2018-01-25T00:58:32.420Z,57.51
2018-01-25T00:59:32.391Z,57.04
2018-01-25T01:00:32.342Z,58.47
2018-01-25T01:01:32.308Z,58.37
2018-01-25T01:02:32.272Z,58.94
2018-01-25T01:03:32.241Z,58.47
2018-01-25T01:04:32.189Z,57.89
2018-01-25T01:05:32.152Z,58.47
2018-01-25T01:06:32.115Z,58.37
2018-01-25T01:07:32.076Z,59.51
2018-01-25T01:08:32.046Z,58.75
2018-01-25T01:09:32.000Z,59.51
2018-01-25T01:10:31.962Z,57.23
2018-01-25T01:11:31.923Z,57.04
2018-01-25T01:12:31.885Z,57.80
2018-01-25T01:13:31.849Z,59.89
2018-01-25T01:14:31.807Z,58.84
2018-01-25T01:15:31.770Z,57.13
2018-01-25T01:16:31.734Z,59.23
2018-01-25T01:17:31.694Z,57.99
2018-01-25T01:18:31.656Z,57.23
2018-01-25T01:19:31.620Z,57.04
2018-01-25T01:20:31.581Z,57.13
2018-01-25T01:21:31.546Z,57.23
2018-01-25T01:22:31.504Z,57.32
2018-01-25T01:23:31.466Z,58.65
2018-01-25T01:24:31.428Z,57.99
2018-01-25T01:25:31.398Z,56.85
2018-01-25T01:26:31.351Z,58.08
2018-01-25T01:27:31.323Z,58.08
2018-01-25T01:28:31.276Z,58.08
2018-01-25T01:29:31.251Z,58.28
2018-01-25T01:30:31.200Z,58.47
2018-01-25T01:31:31.176Z,57.23
2018-01-25T01:32:31.126Z,59.32
2018-01-25T01:33:31.083Z,58.75
2018-01-25T01:34:31.045Z,58.84
2018-01-25T01:35:31.008Z,57.89
2018-01-25T01:36:30.972Z,58.37
2018-01-25T01:37:30.934Z,57.99
2018-01-25T01:38:30.892Z,58.75
2018-01-25T01:39:30.854Z,56.37
2018-01-25T01:40:30.819Z,59.23
2018-01-25T01:41:30.781Z,58.28
2018-01-25T01:42:30.747Z,58.08
2018-01-25T01:43:30.703Z,58.08
2018-01-25T01:44:30.662Z,57.23
2018-01-25T01:45:30.642Z,58.47
2018-01-25T01:46:30.594Z,57.32
2018-01-25T01:47:30.559Z,58.47
2018-01-25T01:48:30.513Z,58.28
2018-01-25T01:49:30.475Z,55.80
2018-01-25T01:50:30.437Z,57.42
2018-01-25T01:51:30.401Z,58.37
2018-01-25T01:52:30.361Z,58.47
2018-01-25T01:53:30.322Z,57.60
2018-01-25T01:54:30.285Z,56.18
2018-01-25T01:55:30.246Z,57.51
2018-01-25T01:56:30.208Z,55.99
2018-01-25T01:57:30.169Z,58.08
2018-01-25T01:58:30.131Z,58.37
2018-01-25T01:59:30.093Z,59.51
2018-01-25T02:00:30.057Z,59.13
2018-01-25T02:01:30.024Z,60.27
2018-01-25T02:02:29.979Z,60.27
2018-01-25T02:03:29.956Z,59.99
2018-01-25T02:04:29.905Z,59.42
2018-01-25T02:05:29.865Z,59.80
2018-01-25T02:06:29.859Z,59.61
2018-01-25T02:07:29.795Z,60.27
2018-01-25T02:08:29.753Z,59.42
2018-01-25T02:09:29.725Z,59.42
2018-01-25T02:10:29.677Z,59.32
2018-01-25T02:11:29.636Z,60.27
2018-01-25T02:12:29.600Z,60.49
2018-01-25T02:13:29.565Z,59.74
2018-01-25T02:14:29.523Z,61.64
2018-01-25T02:15:29.485Z,61.16
2018-01-25T02:16:29.448Z,61.25
2018-01-25T02:17:29.410Z,60.97
2018-01-25T02:18:29.372Z,60.21
2018-01-25T02:19:29.335Z,60.49
2018-01-25T02:20:29.301Z,61.07
2018-01-25T02:21:29.268Z,61.35
2018-01-25T02:22:29.223Z,61.73
2018-01-25T02:23:29.182Z,61.73
2018-01-25T02:24:29.146Z,61.07
2018-01-25T02:25:29.106Z,61.22
2018-01-25T02:26:29.068Z,61.25
2018-01-25T02:27:29.030Z,61.22
2018-01-25T02:28:28.993Z,60.75
2018-01-25T02:29:28.954Z,60.56
2018-01-25T02:30:28.917Z,59.80
2018-01-25T02:31:28.878Z,58.65
2018-01-25T02:32:28.843Z,59.61
2018-01-25T02:33:28.801Z,59.89
2018-01-25T02:34:28.765Z,60.37
2018-01-25T02:35:28.755Z,60.66
2018-01-25T02:36:28.687Z,60.37
2018-01-25T02:37:28.650Z,60.27
2018-01-25T02:38:28.613Z,60.37
2018-01-25T02:39:28.592Z,60.85
2018-01-25T02:40:28.536Z,60.56
2018-01-25T02:41:28.501Z,60.78
2018-01-25T02:42:28.458Z,61.35
2018-01-25T02:43:28.426Z,61.83
2018-01-25T02:44:28.389Z,62.12
2018-01-25T02:45:28.349Z,61.54
2018-01-25T02:46:28.311Z,61.45
2018-01-25T02:47:28.268Z,60.88
2018-01-25T02:48:28.275Z,62.49
2018-01-25T02:49:28.212Z,62.21
2018-01-25T02:50:28.168Z,61.64
2018-01-25T02:51:28.124Z,62.49
2018-01-25T02:52:28.081Z,63.83
2018-01-25T02:53:28.065Z,64.21
2018-01-25T02:54:28.004Z,64.21
2018-01-25T02:55:27.979Z,64.50
2018-01-25T02:56:27.930Z,64.59
2018-01-25T02:57:27.893Z,65.45
2018-01-25T02:58:27.869Z,64.40
2018-01-25T02:59:27.859Z,64.69
2018-01-25T03:00:27.781Z,64.21
2018-01-25T03:01:27.737Z,64.97
2018-01-25T03:02:27.705Z,64.69
2018-01-25T03:03:27.662Z,65.07
2018-01-25T03:04:27.624Z,63.26
2018-01-25T03:05:27.591Z,64.40
2018-01-25T03:06:27.556Z,63.54
2018-01-25T03:07:27.521Z,64.12
2018-01-25T03:08:27.476Z,64.12
2018-01-25T03:09:27.433Z,64.21
2018-01-25T03:10:27.419Z,64.78
2018-01-25T03:11:27.359Z,64.02
2018-01-25T03:12:27.375Z,64.87
2018-01-25T03:13:27.282Z,64.21
2018-01-25T03:14:27.255Z,64.97
2018-01-25T03:15:27.207Z,64.12
2018-01-25T03:16:27.167Z,64.78
2018-01-25T03:17:27.129Z,66.34
2018-01-25T03:18:27.104Z,66.31
2018-01-25T03:19:27.055Z,66.40
2018-01-25T03:20:27.023Z,65.16
2018-01-25T03:21:26.979Z,66.50
2018-01-25T03:22:26.944Z,65.55
2018-01-25T03:23:26.906Z,66.88
2018-01-25T03:24:26.871Z,65.64
2018-01-25T03:25:26.831Z,67.29
2018-01-25T03:26:26.791Z,67.20
2018-01-25T03:27:26.762Z,67.93
2018-01-25T03:28:26.730Z,66.72
2018-01-25T03:29:26.705Z,67.58
2018-01-25T03:30:26.639Z,67.96
2018-01-25T03:31:26.599Z,67.86
2018-01-25T03:32:26.563Z,68.53
2018-01-25T03:33:26.532Z,68.24
2018-01-25T03:34:26.487Z,69.20
2018-01-25T03:35:26.455Z,69.10
2018-01-25T03:36:26.419Z,70.15
2018-01-25T03:37:26.372Z,69.58
2018-01-25T03:38:26.336Z,69.77
2018-01-25T03:39:26.299Z,70.25
2018-01-25T03:40:26.262Z,70.44
2018-01-25T03:41:26.224Z,70.72
2018-01-25T03:42:26.189Z,71.11
2018-01-25T03:43:26.158Z,69.96
2018-01-25T03:44:26.111Z,69.58
2018-01-25T03:45:26.074Z,69.77
2018-01-25T03:46:26.041Z,69.87
2018-01-25T03:47:25.997Z,68.91
2018-01-25T03:48:25.959Z,69.58
2018-01-25T03:49:25.925Z,68.24
2018-01-25T03:50:25.884Z,68.63
2018-01-25T03:51:25.845Z,68.63
2018-01-25T03:52:25.807Z,67.77
2018-01-25T03:53:25.772Z,67.86
2018-01-25T03:54:25.742Z,67.20
2018-01-25T03:55:25.698Z,67.39
2018-01-25T03:56:25.658Z,64.53
2018-01-25T03:57:25.620Z,66.34
2018-01-25T03:58:25.595Z,66.21
2018-01-25T03:59:25.547Z,65.07
2018-01-25T04:00:25.508Z,66.78
2018-01-25T04:01:25.468Z,66.40
2018-01-25T04:02:25.435Z,66.21
2018-01-25T04:03:25.395Z,65.16
2018-01-25T04:04:25.358Z,65.92
2018-01-25T04:05:25.323Z,65.77
2018-01-25T04:06:25.285Z,64.21
2018-01-25T04:07:25.244Z,63.83
2018-01-25T04:08:25.209Z,64.50
2018-01-25T04:09:25.179Z,63.35
2018-01-25T04:10:25.130Z,64.12
2018-01-25T04:11:25.093Z,62.40
2018-01-25T04:12:25.056Z,62.78
2018-01-25T04:13:25.024Z,61.45
2018-01-25T04:14:24.979Z,60.59
2018-01-25T04:15:24.944Z,62.78
2018-01-25T04:16:24.922Z,61.83
2018-01-25T04:17:24.866Z,62.12
2018-01-25T04:18:24.829Z,61.45
2018-01-25T04:19:24.794Z,61.73
2018-01-25T04:20:24.755Z,62.40
2018-01-25T04:21:24.715Z,63.17
2018-01-25T04:22:24.676Z,62.49
2018-01-25T04:23:24.640Z,62.97
2018-01-25T04:24:24.604Z,63.73
2018-01-25T04:25:24.565Z,62.49
2018-01-25T04:26:24.530Z,64.02
2018-01-25T04:27:24.491Z,63.45
2018-01-25T04:28:24.452Z,64.78
2018-01-25T04:29:24.413Z,63.17
2018-01-25T04:30:24.376Z,64.31
2018-01-25T04:31:24.340Z,65.55
2018-01-25T04:32:24.300Z,66.34
2018-01-25T04:33:24.262Z,64.31
2018-01-25T04:34:24.227Z,64.05
2018-01-25T04:35:24.189Z,66.31
2018-01-25T04:36:24.148Z,64.59
2018-01-25T04:37:24.113Z,65.26
2018-01-25T04:38:24.075Z,66.50
2018-01-25T04:39:24.043Z,65.29
2018-01-25T04:40:24.000Z,65.92
2018-01-25T04:41:23.961Z,66.63
2018-01-25T04:42:23.923Z,65.07
2018-01-25T04:43:23.886Z,66.02
2018-01-25T04:44:23.849Z,65.45
2018-01-25T04:45:23.812Z,66.02
2018-01-25T04:46:23.772Z,66.31
2018-01-25T04:47:23.735Z,65.16
2018-01-25T04:48:23.700Z,66.31
2018-01-25T04:49:23.660Z,66.21
2018-01-25T04:50:23.624Z,66.21
2018-01-25T04:51:23.590Z,65.07
2018-01-25T04:52:23.553Z,65.55
2018-01-25T04:53:23.510Z,65.64
2018-01-25T04:54:23.470Z,65.07
2018-01-25T04:55:23.452Z,65.55
2018-01-25T04:56:23.395Z,67.07
2018-01-25T04:57:23.359Z,66.88
2018-01-25T04:58:23.322Z,67.26
2018-01-25T04:59:23.285Z,67.39
2018-01-25T05:00:23.250Z,66.69
2018-01-25T05:01:23.211Z,67.26
2018-01-25T05:02:23.182Z,66.78
2018-01-25T05:03:23.135Z,67.16
2018-01-25T05:04:23.123Z,66.97
2018-01-25T05:05:23.062Z,67.68
2018-01-25T05:06:23.022Z,67.20
2018-01-25T05:07:22.985Z,67.39
2018-01-25T05:08:22.973Z,66.97
2018-01-25T05:09:22.920Z,68.21
2018-01-25T05:10:22.890Z,68.34
2018-01-25T05:11:22.840Z,67.29
2018-01-25T05:12:22.810Z,68.82
2018-01-25T05:13:22.759Z,68.53
2018-01-25T05:14:22.730Z,68.05
2018-01-25T05:15:22.685Z,67.96
2018-01-25T05:16:22.650Z,68.63
2018-01-25T05:17:22.611Z,68.78
2018-01-25T05:18:22.576Z,67.16
2018-01-25T05:19:22.567Z,67.74
2018-01-25T05:20:22.533Z,67.35
2018-01-25T05:21:22.995Z,67.26
2018-01-25T05:22:22.424Z,67.16
2018-01-25T05:23:22.386Z,66.53
2018-01-25T05:24:22.348Z,66.82
2018-01-25T05:25:22.317Z,66.31
2018-01-25T05:26:22.281Z,66.11
2018-01-25T05:27:22.239Z,67.29
2018-01-25T05:28:22.207Z,66.24
2018-01-25T05:29:22.185Z,66.69
2018-01-25T05:30:22.139Z,66.59
2018-01-25T05:31:22.088Z,67.10
2018-01-25T05:32:22.057Z,67.35
2018-01-25T05:33:22.012Z,67.16
2018-01-25T05:34:21.984Z,67.74
2018-01-25T05:35:21.939Z,67.35
2018-01-25T05:36:21.915Z,67.16
2018-01-25T05:37:21.865Z,67.55
2018-01-25T05:38:21.831Z,67.29
2018-01-25T05:39:21.787Z,68.82
2018-01-25T05:40:21.750Z,68.53
2018-01-25T05:41:21.718Z,67.74
2018-01-25T05:42:21.674Z,68.82
2018-01-25T05:43:21.664Z,67.45
2018-01-25T05:44:21.602Z,68.82
2018-01-25T05:45:21.560Z,67.77
2018-01-25T05:46:21.524Z,68.91
2018-01-25T05:47:21.487Z,68.30
2018-01-25T05:48:21.452Z,68.15
2018-01-25T05:49:21.412Z,68.44
2018-01-25T05:50:21.374Z,68.82
2018-01-25T05:51:21.335Z,69.01
2018-01-25T05:52:21.304Z,68.63
2018-01-25T05:53:21.260Z,68.91
2018-01-25T05:54:21.272Z,69.77
2018-01-25T05:55:21.189Z,68.05
2018-01-25T05:56:21.158Z,69.77
2018-01-25T05:57:21.130Z,69.68
2018-01-25T05:58:21.078Z,70.63
2018-01-25T05:59:21.051Z,69.48
2018-01-25T06:00:21.002Z,70.63
2018-01-25T06:01:20.968Z,70.44
2018-01-25T06:02:20.928Z,70.34
2018-01-25T06:03:20.889Z,71.20
2018-01-25T06:04:20.852Z,71.58
2018-01-25T06:05:20.823Z,72.34
2018-01-25T06:06:20.774Z,73.11
2018-01-25T06:07:20.741Z,72.82
2018-01-25T06:08:20.701Z,72.92
2018-01-25T06:09:20.666Z,72.82
2018-01-25T06:10:20.628Z,73.49
2018-01-25T06:11:20.589Z,74.35
2018-01-25T06:12:20.552Z,72.92
2018-01-25T06:13:20.515Z,72.92
2018-01-25T06:14:20.478Z,73.30
2018-01-25T06:15:20.440Z,73.77
2018-01-25T06:16:20.408Z,73.30
2018-01-25T06:17:20.366Z,73.77
2018-01-25T06:18:20.329Z,74.54
2018-01-25T06:19:20.294Z,74.44
2018-01-25T06:20:20.254Z,74.35
2018-01-25T06:21:20.217Z,75.11
2018-01-25T06:22:20.179Z,73.96
2018-01-25T06:23:20.146Z,73.77
2018-01-25T06:24:20.104Z,74.96
2018-01-25T06:25:20.067Z,74.25
2018-01-25T06:26:20.033Z,73.87
2018-01-25T06:27:19.996Z,73.30
2018-01-25T06:28:19.955Z,74.16
2018-01-25T06:29:19.917Z,74.73
2018-01-25T06:30:19.878Z,74.19
2018-01-25T06:31:19.843Z,74.35
2018-01-25T06:32:19.818Z,74.06
2018-01-25T06:33:19.771Z,73.96
2018-01-25T06:34:19.740Z,73.11
2018-01-25T06:35:19.696Z,73.11
2018-01-25T06:36:19.658Z,73.58
2018-01-25T06:37:19.620Z,74.77
2018-01-25T06:38:19.584Z,73.87
2018-01-25T06:39:19.544Z,74.16
2018-01-25T06:40:19.509Z,74.01
2018-01-25T06:41:19.471Z,73.39
2018-01-25T06:42:19.432Z,73.33
2018-01-25T06:43:19.404Z,72.96
2018-01-25T06:44:19.358Z,74.96
2018-01-25T06:45:19.332Z,75.91
2018-01-25T06:46:19.285Z,74.67
2018-01-25T06:47:19.249Z,73.72
2018-01-25T06:48:19.210Z,74.77
2018-01-25T06:49:19.173Z,74.19
2018-01-25T06:50:19.137Z,73.72
2018-01-25T06:51:19.100Z,74.67
2018-01-25T06:52:19.080Z,74.77
2018-01-25T06:53:19.024Z,74.57
2018-01-25T06:54:18.989Z,74.86
2018-01-25T06:55:18.954Z,75.72
2018-01-25T06:56:18.912Z,75.05
2018-01-25T06:57:18.878Z,75.72
2018-01-25T06:58:18.888Z,75.15
2018-01-25T06:59:18.803Z,74.77
2018-01-25T07:00:18.792Z,75.34
2018-01-25T07:01:18.741Z,74.77
2018-01-25T07:02:18.696Z,74.10
2018-01-25T07:03:18.655Z,73.33
2018-01-25T07:04:18.619Z,75.43
2018-01-25T07:05:18.579Z,73.81
2018-01-25T07:06:18.542Z,74.10
2018-01-25T07:07:18.506Z,74.38
2018-01-25T07:08:18.489Z,72.96
2018-01-25T07:09:18.431Z,73.43
2018-01-25T07:10:18.399Z,73.52
2018-01-25T07:11:18.360Z,73.62
2018-01-25T07:12:18.331Z,73.33
2018-01-25T07:13:18.305Z,74.01
2018-01-25T07:14:18.245Z,73.14
2018-01-25T07:15:18.210Z,73.05
2018-01-25T07:16:18.172Z,73.91
2018-01-25T07:17:18.135Z,72.57
2018-01-25T07:18:18.102Z,73.05
2018-01-25T07:19:18.072Z,72.19
2018-01-25T07:20:18.026Z,72.86
2018-01-25T07:21:17.990Z,68.85
2018-01-25T07:22:17.948Z,71.33
2018-01-25T07:23:17.968Z,66.28
2018-01-25T07:24:17.876Z,69.23
2018-01-25T07:25:17.840Z,64.56
2018-01-25T07:26:17.804Z,66.56
2018-01-25T07:27:17.766Z,67.33
2018-01-25T07:28:17.776Z,64.62
2018-01-25T07:29:17.696Z,65.61
2018-01-25T07:30:17.673Z,67.23
2018-01-25T07:31:17.622Z,66.09
2018-01-25T07:32:17.619Z,60.05
2018-01-25T07:33:17.553Z,64.15
2018-01-25T07:34:17.513Z,61.67
2018-01-25T07:35:17.471Z,59.95
2018-01-25T07:36:17.442Z,57.48
2018-01-25T07:37:17.398Z,56.24
2018-01-25T07:38:17.369Z,52.04
2018-01-25T07:39:17.325Z,46.04
2018-01-25T07:40:17.296Z,46.42
2018-01-25T07:41:17.256Z,42.89
2018-01-25T07:42:17.221Z,36.88
2018-01-25T07:43:17.189Z,35.35
2018-01-25T07:44:17.171Z,32.69
2018-01-25T07:45:17.100Z,28.29
2018-01-25T07:46:17.064Z,26.96
2018-01-25T07:47:17.034Z,22.29
2018-01-25T07:48:16.991Z,19.15
2018-01-25T07:49:16.967Z,18.10
2018-01-25T07:50:16.939Z,12.67
2018-01-25T07:51:16.885Z,10.67
2018-01-25T07:52:16.858Z,8.86
2018-01-25T07:53:16.799Z,6.10
2018-01-25T07:54:16.789Z,3.23
2018-01-25T07:55:16.774Z,0.00
2018-01-25T07:56:16.711Z,0.00
2018-01-25T07:57:16.657Z,0.00
2018-01-25T07:58:16.665Z,0.00
2018-01-25T07:59:16.579Z,0.00
2018-01-25T08:00:16.549Z,0.00
2018-01-25T08:01:16.517Z,0.00
2018-01-25T08:02:16.463Z,0.00
2018-01-25T08:03:16.421Z,0.00
2018-01-25T08:04:16.394Z,0.00
2018-01-25T08:05:16.353Z,0.00
2018-01-25T08:06:16.313Z,0.00
2018-01-25T08:07:16.271Z,0.00
2018-01-25T08:08:16.236Z,0.00
2018-01-25T08:09:16.201Z,0.00
2018-01-25T08:10:16.153Z,0.00
2018-01-25T08:11:16.118Z,0.00
2018-01-25T08:12:16.084Z,0.00
2018-01-25T08:13:16.047Z,0.00
2018-01-25T08:14:16.004Z,0.00
2018-01-25T08:15:15.968Z,0.00
2018-01-25T08:16:15.937Z,0.00
2018-01-25T08:17:15.903Z,0.00
2018-01-25T08:18:15.853Z,0.00
2018-01-25T08:19:15.818Z,0.00
2018-01-25T08:20:15.778Z,0.00
2018-01-25T08:21:15.740Z,0.00
2018-01-25T08:22:15.702Z,0.00
2018-01-25T08:23:15.664Z,0.00
2018-01-25T08:24:15.628Z,0.00
2018-01-25T08:25:15.591Z,0.00
2018-01-25T08:26:15.554Z,0.00
2018-01-25T08:27:15.513Z,0.00
2018-01-25T08:28:15.481Z,0.00
2018-01-25T08:29:15.436Z,0.00
2018-01-25T08:30:15.403Z,0.00
2018-01-25T08:31:15.361Z,0.00
2018-01-25T08:32:15.325Z,0.00
2018-01-25T08:33:15.290Z,0.00
2018-01-25T08:34:15.248Z,0.00
2018-01-25T08:35:15.211Z,0.00
2018-01-25T08:36:15.172Z,0.00
2018-01-25T08:37:15.134Z,0.00
2018-01-25T08:38:15.103Z,0.00
2018-01-25T08:39:15.067Z,0.00
2018-01-25T08:40:15.028Z,0.00
2018-01-25T08:41:14.988Z,0.00
2018-01-25T08:42:14.948Z,0.00
2018-01-25T08:43:14.907Z,0.00
2018-01-25T08:44:14.870Z,0.00
2018-01-25T08:45:14.846Z,0.00
2018-01-25T08:46:14.797Z,0.00
2018-01-25T08:47:14.760Z,0.00
2018-01-25T08:48:14.723Z,0.00
2018-01-25T08:49:14.683Z,0.00
2018-01-25T08:50:14.645Z,0.00
2018-01-25T08:51:14.618Z,0.00
2018-01-25T08:52:14.567Z,0.00
2018-01-25T08:53:14.530Z,0.00
2018-01-25T08:54:14.491Z,0.00
2018-01-25T08:55:14.455Z,0.00
2018-01-25T08:56:14.419Z,0.00
2018-01-25T08:57:14.379Z,0.00
2018-01-25T08:58:14.343Z,0.00
2018-01-25T08:59:14.304Z,0.00
2018-01-25T09:00:14.269Z,0.00
2018-01-25T09:01:14.227Z,0.00
2018-01-25T09:02:14.191Z,0.00
2018-01-25T09:03:14.153Z,0.00
2018-01-25T09:04:14.116Z,0.00
2018-01-25T09:05:14.077Z,0.00
2018-01-25T09:06:14.042Z,0.00
2018-01-25T09:07:14.003Z,0.00
2018-01-25T09:08:13.967Z,0.00
2018-01-25T09:09:13.936Z,0.00
2018-01-25T09:10:13.888Z,0.00
2018-01-25T09:11:13.868Z,0.00
2018-01-25T09:12:13.814Z,0.00
2018-01-25T09:13:13.778Z,0.00
2018-01-25T09:14:13.743Z,0.00
2018-01-25T09:15:13.702Z,0.00
2018-01-25T09:16:13.666Z,0.00
2018-01-25T09:17:13.629Z,0.00
2018-01-25T09:18:13.594Z,0.00
2018-01-25T09:19:13.553Z,0.00
2018-01-25T09:20:13.516Z,0.00
2018-01-25T09:21:13.487Z,0.00
2018-01-25T09:22:13.442Z,0.00
2018-01-25T09:23:13.407Z,0.00
2018-01-25T09:24:13.372Z,0.00
2018-01-25T09:25:13.327Z,0.00
2018-01-25T09:26:13.292Z,0.00
2018-01-25T09:27:13.255Z,0.00
2018-01-25T09:28:13.218Z,0.00
2018-01-25T09:29:13.181Z,0.00
2018-01-25T09:30:13.158Z,0.00
2018-01-25T09:31:13.106Z,0.00
2018-01-25T09:32:13.076Z,0.00
2018-01-25T09:33:13.029Z,0.00
2018-01-25T09:34:13.002Z,0.00
2018-01-25T09:35:12.961Z,0.00
2018-01-25T09:36:12.923Z,0.00
2018-01-25T09:37:12.884Z,4.10
2018-01-25T09:38:12.858Z,3.90
2018-01-25T09:39:12.822Z,0.76
2018-01-25T09:40:12.775Z,3.62
2018-01-25T09:41:12.734Z,2.28
2018-01-25T09:42:12.699Z,3.33
2018-01-25T09:43:12.662Z,4.10
2018-01-25T09:44:12.623Z,2.95
2018-01-25T09:45:12.593Z,2.00
2018-01-25T09:46:12.558Z,3.52
2018-01-25T09:47:12.514Z,3.52
2018-01-25T09:48:12.480Z,2.09
2018-01-25T09:49:12.448Z,0.95
2018-01-25T09:50:12.400Z,7.90
2018-01-25T09:51:12.364Z,11.05
2018-01-25T09:52:12.335Z,8.67
2018-01-25T09:53:12.325Z,9.05
2018-01-25T09:54:12.303Z,8.76
2018-01-25T09:55:12.223Z,9.81
2018-01-25T09:56:12.179Z,10.10
2018-01-25T09:57:12.142Z,7.81
2018-01-25T09:58:12.103Z,6.00
2018-01-25T09:59:12.066Z,8.39
2018-01-25T10:00:12.033Z,7.53
2018-01-25T10:01:12.003Z,8.96
2018-01-25T10:02:11.962Z,11.34
2018-01-25T10:03:11.926Z,12.68
2018-01-25T10:04:11.892Z,13.15
2018-01-25T10:05:11.866Z,14.39
2018-01-25T10:06:11.818Z,14.68
2018-01-25T10:07:11.803Z,17.72
2018-01-25T10:08:11.740Z,13.53
2018-01-25T10:09:11.696Z,18.49
2018-01-25T10:10:11.659Z,18.59
2018-01-25T10:11:11.627Z,18.96
2018-01-25T10:12:11.602Z,21.73
2018-01-25T10:13:11.557Z,20.20
2018-01-25T10:14:11.528Z,22.49
2018-01-25T10:15:11.479Z,20.49
2018-01-25T10:16:11.451Z,21.44
2018-01-25T10:17:11.410Z,24.21
2018-01-25T10:18:11.382Z,25.26
2018-01-25T10:19:11.331Z,22.97
2018-01-25T10:20:11.298Z,25.92
2018-01-25T10:21:11.311Z,24.40
2018-01-25T10:22:11.223Z,22.88
2018-01-25T10:23:11.205Z,22.40
2018-01-25T10:24:11.148Z,23.16
2018-01-25T10:25:11.112Z,26.78
2018-01-25T10:26:11.088Z,21.25
2018-01-25T10:27:11.045Z,21.73
2018-01-25T10:28:11.000Z,22.11
2018-01-25T10:29:10.979Z,22.68
2018-01-25T10:30:11.003Z,27.45
2018-01-25T10:31:10.912Z,22.02
2018-01-25T10:32:10.863Z,20.78
2018-01-25T10:33:11.079Z,24.30
2018-01-25T10:34:10.812Z,23.16
2018-01-25T10:35:11.573Z,20.12
2018-01-25T10:36:11.573Z,23.17
2018-01-25T10:37:10.670Z,29.94
2018-01-25T10:38:10.632Z,28.89
2018-01-25T10:39:10.597Z,24.13
2018-01-25T10:40:10.570Z,33.47
2018-01-25T10:41:10.532Z,27.08
2018-01-25T10:42:10.492Z,27.18
2018-01-25T10:43:10.476Z,26.70
2018-01-25T10:44:10.423Z,32.71
2018-01-25T10:45:10.389Z,33.37
2018-01-25T10:46:10.342Z,30.71
2018-01-25T10:47:10.322Z,25.94
2018-01-25T10:48:10.268Z,22.60
2018-01-25T10:49:10.241Z,25.56
2018-01-25T10:50:10.197Z,26.03
2018-01-25T10:51:10.243Z,24.22
2018-01-25T10:52:10.126Z,23.36
2018-01-25T10:53:10.084Z,24.60
2018-01-25T10:54:10.054Z,21.84
2018-01-25T10:55:10.018Z,25.65
2018-01-25T10:56:09.980Z,24.79
2018-01-25T10:57:09.940Z,25.56
2018-01-25T10:58:09.915Z,27.48
2018-01-25T10:59:09.874Z,32.04
2018-01-25T11:00:09.837Z,24.69
2018-01-25T11:01:09.803Z,26.14
2018-01-25T11:02:09.764Z,28.51
2018-01-25T11:03:09.731Z,28.81
2018-01-25T11:04:09.691Z,27.37
2018-01-25T11:05:09.654Z,31.95
2018-01-25T11:06:09.631Z,31.18
2018-01-25T11:07:09.594Z,31.47
2018-01-25T11:08:09.550Z,29.66
2018-01-25T11:09:09.514Z,31.09
2018-01-25T11:10:09.485Z,25.94
2018-01-25T11:11:09.442Z,28.99
2018-01-25T11:12:09.406Z,26.32
2018-01-25T11:13:09.368Z,26.51
2018-01-25T11:14:09.329Z,25.94
2018-01-25T11:15:09.301Z,25.56
2018-01-25T11:16:09.283Z,26.42
2018-01-25T11:17:09.224Z,25.65
2018-01-25T11:18:09.205Z,27.75
2018-01-25T11:19:09.152Z,23.27
2018-01-25T11:20:09.126Z,22.40
2018-01-25T11:21:09.096Z,23.35
2018-01-25T11:22:09.054Z,18.96
2018-01-25T11:23:09.048Z,14.39
2018-01-25T11:24:08.977Z,16.20
2018-01-25T11:25:08.935Z,14.87
2018-01-25T11:26:08.900Z,14.68
2018-01-25T11:27:08.870Z,17.72
2018-01-25T11:28:08.830Z,12.68
2018-01-25T11:29:08.797Z,17.25
2018-01-25T11:30:08.756Z,10.20
2018-01-25T11:31:08.720Z,10.96
2018-01-25T11:32:08.686Z,8.96
2018-01-25T11:33:08.650Z,8.86
2018-01-25T11:34:08.613Z,8.76
2018-01-25T11:35:08.595Z,9.63
2018-01-25T11:36:08.540Z,10.39
2018-01-25T11:37:08.546Z,9.81
2018-01-25T11:38:08.469Z,15.16
2018-01-25T11:39:08.445Z,11.53
2018-01-25T11:40:08.402Z,11.15
2018-01-25T11:41:08.360Z,10.77
2018-01-25T11:42:08.330Z,10.00
2018-01-25T11:43:08.300Z,8.76
2018-01-25T11:44:08.252Z,8.10
2018-01-25T11:45:08.217Z,7.43
2018-01-25T11:46:08.179Z,8.58
2018-01-25T11:47:08.158Z,8.96
2018-01-25T11:48:08.159Z,11.15
2018-01-25T11:49:08.079Z,12.01
2018-01-25T11:50:08.036Z,12.01
2018-01-25T11:51:08.000Z,15.53
2018-01-25T11:52:07.957Z,12.01
2018-01-25T11:53:07.952Z,14.01
2018-01-25T11:54:07.885Z,12.20
2018-01-25T11:55:07.851Z,14.20
2018-01-25T11:56:07.822Z,11.82
2018-01-25T11:57:07.780Z,14.48
2018-01-25T11:58:07.772Z,18.87
2018-01-25T11:59:07.848Z,19.44
2018-01-25T12:00:07.714Z,20.20
2018-01-25T12:01:07.630Z,25.92
2018-01-25T12:02:07.595Z,25.64
2018-01-25T12:03:07.585Z,25.54
2018-01-25T12:04:07.618Z,25.64
2018-01-25T12:05:07.488Z,22.59
2018-01-25T12:06:07.574Z,23.54
2018-01-25T12:07:07.442Z,23.16
2018-01-25T12:08:07.644Z,25.92
2018-01-25T12:09:07.393Z,31.93
2018-01-25T12:10:07.314Z,27.73
2018-01-25T12:11:07.535Z,32.21
2018-01-25T12:12:07.237Z,27.36
2018-01-25T12:13:07.212Z,36.03
2018-01-25T12:14:07.170Z,33.36
2018-01-25T12:15:07.136Z,37.46
2018-01-25T12:16:07.173Z,36.96
2018-01-25T12:17:07.051Z,41.06
2018-01-25T12:18:07.245Z,38.49
2018-01-25T12:19:07.599Z,34.77
2018-01-25T12:20:06.997Z,32.29
2018-01-25T12:21:06.976Z,35.93
2018-01-25T12:22:06.940Z,38.87
2018-01-25T12:23:06.885Z,34.50
2018-01-25T12:24:07.056Z,29.26
2018-01-25T12:25:07.053Z,38.41
2018-01-25T12:26:06.773Z,34.12
2018-01-25T12:27:06.689Z,32.03
2018-01-25T12:28:06.650Z,27.07
2018-01-25T12:29:06.615Z,35.55
2018-01-25T12:30:06.634Z,39.92
2018-01-25T12:31:06.544Z,29.16
2018-01-25T12:32:06.497Z,28.97
2018-01-25T12:33:06.486Z,25.82
2018-01-25T12:34:06.492Z,26.50
2018-01-25T12:35:06.390Z,22.88
2018-01-25T12:36:06.470Z,23.07
2018-01-25T12:37:06.358Z,22.59
2018-01-25T12:38:06.324Z,24.02
2018-01-25T12:39:06.249Z,26.50
2018-01-25T12:40:06.559Z,26.68
2018-01-25T12:41:06.179Z,30.88
2018-01-25T12:42:06.177Z,23.64
2018-01-25T12:43:06.259Z,22.30
2018-01-25T12:44:06.194Z,20.78
2018-01-25T12:45:06.120Z,21.44
2018-01-25T12:46:06.003Z,22.97
2018-01-25T12:47:05.959Z,20.97
2018-01-25T12:48:05.923Z,24.02
2018-01-25T12:49:05.878Z,23.54
2018-01-25T12:50:05.845Z,20.00
2018-01-25T12:51:05.801Z,20.30
2018-01-25T12:52:05.775Z,16.39
2018-01-25T12:53:05.815Z,16.67
2018-01-25T12:54:05.699Z,14.67
2018-01-25T12:55:05.656Z,14.20
2018-01-25T12:56:05.754Z,15.25
2018-01-25T12:57:05.580Z,20.20